Time;durP1;ratioP1;P1;durP2;ratioP2;P2;SDS_P1;SDS_P2;PMS_P1;PMS_P2;Temp;Humidity;BMP_temperature;BMP_pressure;BME280_temperature;BME280_humidity;BME280_pressure;Samples;Min_cycle;Max_cycle;Signal;HPM_P1;HPM_P2
2022/10/02 00:01:48;;;;;;;15.38;4.00;;;;;;;10.36;85.55;100167.28;10213092;29;20126;-81
2022/10/02 00:06:56;;;;;;;14.18;4.03;;;;;;;10.34;85.38;100172.78;10288394;28;20074;-81
2022/10/02 00:12:04;;;;;;;17.77;4.97;;;;;;;10.45;85.25;100177.28;10292638;28;20058;-78
2022/10/02 00:17:15;;;;;;;18.27;5.10;;;;;;;10.35;85.41;100184.38;10287482;28;20054;-80
2022/10/02 00:22:30;;;;;;;18.48;6.30;;;;;;;10.12;86.43;100186.25;10283848;28;20070;-79
2022/10/02 00:27:46;;;;;;;19.58;6.93;;;;;;;10.00;86.89;100185.44;10289319;28;20066;-80
2022/10/02 00:33:03;;;;;;;17.15;6.32;;;;;;;10.13;85.93;100190.66;10268332;28;20054;-81
2022/10/02 00:38:17;;;;;;;20.02;5.38;;;;;;;10.02;86.26;100194.25;10276347;28;20082;-81
2022/10/02 00:43:29;;;;;;;26.73;7.93;;;;;;;10.02;86.26;100194.25;10284706;28;20075;-78
2022/10/02 00:49:04;;;;;;;21.80;8.43;;;;;;;10.05;86.48;100199.34;10277378;28;20040;-79
2022/10/02 00:54:18;;;;;;;48.13;7.30;;;;;;;9.94;86.36;100194.00;10275014;28;20126;-78
2022/10/02 00:59:38;;;;;;;23.88;7.93;;;;;;;9.85;87.78;100198.25;10278813;28;20047;-78
2022/10/02 01:04:42;;;;;;;27.23;6.80;;;;;;;9.93;87.00;100198.53;10273085;28;20071;-79
2022/10/02 01:09:45;;;;;;;18.75;9.00;;;;;;;9.87;87.37;100207.09;10285897;28;20043;-78
2022/10/02 01:14:50;;;;;;;25.15;7.95;;;;;;;9.83;87.63;100202.03;10278909;28;20090;-80
2022/10/02 01:19:53;;;;;;;22.60;9.35;;;;;;;9.91;87.13;100210.34;10283931;28;20050;-79
2022/10/02 01:24:59;;;;;;;27.80;10.18;;;;;;;9.80;87.72;100205.81;10284883;28;20043;-77
2022/10/02 01:30:06;;;;;;;26.88;9.52;;;;;;;9.85;87.38;100206.31;10286411;28;20071;-80
2022/10/02 01:35:09;;;;;;;20.45;8.68;;;;;;;9.88;87.13;100211.47;10275333;28;20073;-79
2022/10/02 01:40:25;;;;;;;25.60;8.70;;;;;;;9.94;87.41;100213.63;10289216;28;20066;-80
2022/10/02 01:45:43;;;;;;;26.73;8.73;;;;;;;9.90;87.90;100214.88;10285639;28;20039;-79
2022/10/02 01:50:56;;;;;;;29.02;9.27;;;;;;;9.81;88.75;100223.63;10277886;28;20385;-79
2022/10/02 01:56:05;;;;;;;;;;;;;;;9.82;88.89;100233.38;10287762;28;20092;-80
2022/10/02 02:01:16;;;;;;;30.52;9.57;;;;;;;10.07;87.28;100226.91;10265641;28;19960;-79
2022/10/02 02:06:26;;;;;;;26.23;8.73;;;;;;;9.84;89.52;100239.47;10289738;28;20043;-79
2022/10/02 02:11:31;;;;;;;28.73;9.95;;;;;;;10.15;87.83;100231.66;10273279;28;20077;-79
2022/10/02 02:16:41;;;;;;;23.77;9.23;;;;;;;10.07;89.04;100251.06;10271443;28;20053;-76
2022/10/02 02:21:47;;;;;;;25.45;10.02;;;;;;;10.25;88.65;100240.66;10284749;28;20107;-79
2022/10/02 02:26:55;;;;;;;28.25;10.82;;;;;;;10.26;88.50;100244.22;10282569;28;20115;-80
2022/10/02 02:32:00;;;;;;;32.28;13.68;;;;;;;10.26;89.35;100253.13;10273635;28;20066;-80
2022/10/02 02:37:08;;;;;;;27.80;13.35;;;;;;;10.45;88.56;100230.97;10284247;28;20055;-78
2022/10/02 02:42:14;;;;;;;35.53;14.98;;;;;;;10.78;87.18;100235.34;10267526;28;20051;-80
2022/10/02 02:47:24;;;;;;;33.10;17.10;;;;;;;10.78;86.67;100227.28;10271478;28;20047;-80
2022/10/02 02:52:32;;;;;;;46.75;16.40;;;;;;;10.71;87.41;100228.78;10281070;28;20074;-79
2022/10/02 02:57:43;;;;;;;32.10;15.23;;;;;;;10.72;87.60;100222.41;10297437;28;20576;-78
2022/10/02 03:02:49;;;;;;;38.60;15.20;;;;;;;10.78;86.93;100231.81;10291139;28;20073;-78
2022/10/02 03:07:55;;;;;;;26.23;12.90;;;;;;;10.98;86.10;100216.69;10288796;28;20101;-78
2022/10/02 03:13:10;;;;;;;27.70;10.43;;;;;;;10.66;87.34;100227.47;10301442;28;20103;-79
2022/10/02 03:18:25;;;;;;;29.88;8.63;;;;;;;10.53;87.58;100235.69;10281529;28;20551;-78
2022/10/02 03:23:34;;;;;;;24.27;10.43;;;;;;;10.66;87.38;100224.78;10294426;28;20071;-79
2022/10/02 03:28:43;;;;;;;30.33;10.95;;;;;;;10.59;87.75;100232.50;10276831;28;20085;-79
2022/10/02 03:34:00;;;;;;;28.15;10.40;;;;;;;10.77;87.75;100238.16;10289829;28;20051;-79
2022/10/02 03:39:06;;;;;;;42.22;11.98;;;;;;;10.65;88.70;100225.78;10304465;28;20066;-79
2022/10/02 03:44:30;;;;;;;25.00;9.48;;;;;;;10.69;88.38;100219.16;10301838;28;20145;-77
2022/10/02 03:49:33;;;;;;;34.97;12.95;;;;;;;10.87;87.80;100222.13;10287837;28;20059;-79
2022/10/02 03:54:37;;;;;;;39.22;14.45;;;;;;;10.66;89.05;100214.03;10275493;28;20047;-79
2022/10/02 03:59:46;;;;;;;36.70;15.30;;;;;;;10.90;88.19;100222.72;10281643;28;20097;-79
2022/10/02 04:04:55;;;;;;;37.50;15.65;;;;;;;10.87;88.24;100222.13;10282517;28;20134;-79
2022/10/02 04:10:14;;;;;;;26.42;10.80;;;;;;;10.88;87.98;100221.13;10288429;28;20469;-79
2022/10/02 04:15:23;;;;;;;28.17;13.40;;;;;;;10.60;90.73;100223.47;10295366;28;20054;-80
2022/10/02 04:20:32;;;;;;;35.30;14.68;;;;;;;10.78;88.68;100213.00;10278004;28;20107;-77
2022/10/02 04:25:42;;;;;;;29.63;13.20;;;;;;;10.53;89.30;100219.56;10267672;28;20587;-79
2022/10/02 04:30:46;;;;;;;34.72;12.55;;;;;;;10.81;87.69;100218.97;10301788;28;20073;-79
2022/10/02 04:36:01;;;;;;;31.73;13.88;;;;;;;10.73;87.71;100226.81;10330945;28;20081;-78
2022/10/02 04:41:19;;;;;;;29.23;13.38;;;;;;;10.67;88.08;100234.53;10312855;28;20082;-79
2022/10/02 04:46:44;;;;;;;34.45;12.90;;;;;;;10.59;88.20;100240.56;10285890;28;20564;-78
2022/10/02 04:52:04;;;;;;;34.08;12.25;;;;;;;10.66;87.36;100249.81;10273340;28;20549;-79
2022/10/02 04:57:24;;;;;;;34.50;12.88;;;;;;;10.60;88.40;100258.38;10286292;28;20062;-79
2022/10/02 05:02:41;;;;;;;36.05;12.77;;;;;;;10.73;87.39;100259.06;10281518;28;20082;-79
2022/10/02 05:08:08;;;;;;;27.70;10.75;;;;;;;10.83;86.58;100265.38;10270778;28;20082;-79
2022/10/02 05:13:28;;;;;;;26.75;10.43;;;;;;;10.68;87.40;100274.72;10302960;28;20086;-79
2022/10/02 05:18:51;;;;;;;25.67;11.55;;;;;;;10.73;87.64;100269.81;10275710;28;20070;-79
2022/10/02 05:24:09;;;;;;;23.40;10.18;;;;;;;10.73;88.13;100275.19;10279112;28;20061;-79
2022/10/02 05:29:30;;;;;;;24.45;10.20;;;;;;;10.61;88.83;100277.06;10305640;28;20047;-79
2022/10/02 05:34:47;;;;;;;26.60;11.93;;;;;;;10.89;87.78;100272.06;10307048;28;20571;-77
2022/10/02 05:39:58;;;;;;;26.02;11.68;;;;;;;10.93;87.70;100272.66;10263348;28;20058;-77
2022/10/02 05:45:05;;;;;;;34.78;15.30;;;;;;;10.98;87.34;100278.50;10292495;28;20082;-77
2022/10/02 05:50:16;;;;;;;32.03;13.52;;;;;;;11.05;87.82;100293.09;10279323;28;20082;-77
2022/10/02 05:55:25;;;;;;;39.88;14.20;;;;;;;11.05;87.28;100296.66;10270736;28;20077;-78
2022/10/02 06:00:36;;;;;;;43.22;15.32;;;;;;;10.86;88.16;100295.63;10273780;28;20067;-77
2022/10/02 06:05:49;;;;;;;38.88;16.35;;;;;;;11.02;87.81;100288.00;10286621;28;20058;-78
2022/10/02 06:10:56;;;;;;;28.05;15.90;;;;;;;11.13;87.38;100293.34;10283452;28;20130;-78
2022/10/02 06:16:08;;;;;;;38.38;18.55;;;;;;;10.78;89.54;100289.09;10272907;28;20476;-79
2022/10/02 06:21:23;;;;;;;32.23;17.03;;;;;;;11.12;87.61;100288.97;10271602;28;20051;-80
2022/10/02 06:26:37;;;;;;;39.00;17.40;;;;;;;11.28;88.47;100297.44;10281816;28;20310;-79
2022/10/02 06:31:45;;;;;;;36.25;15.38;;;;;;;11.63;86.29;100282.78;10269629;28;20048;-78
2022/10/02 06:37:18;;;;;;;36.15;12.13;;;;;;;11.44;87.86;100299.66;10273076;28;20047;-79
2022/10/02 06:42:32;;;;;;;26.83;13.80;;;;;;;11.68;86.48;100311.97;10270695;28;20043;-79
2022/10/02 06:47:49;;;;;;;35.42;13.93;;;;;;;11.39;88.51;100322.56;10317479;28;20058;-79
2022/10/02 06:53:02;;;;;;;33.35;14.70;;;;;;;11.78;87.18;100318.25;10300521;28;20130;-79
2022/10/02 06:58:22;;;;;;;27.85;12.68;;;;;;;11.68;87.83;100311.97;10285072;28;20055;-79
2022/10/02 07:04:12;;;;;;;35.08;15.43;;;;;;;12.12;85.76;100320.66;10280497;28;20050;-79
2022/10/02 07:09:33;;;;;;;26.83;13.77;;;;;;;12.16;86.13;100330.19;10258993;28;20121;-78
2022/10/02 07:14:54;;;;;;;32.38;14.80;;;;;;;12.34;85.28;100333.09;10271262;28;20165;-79
2022/10/02 07:20:14;;;;;;;26.45;13.20;;;;;;;11.98;87.18;100343.41;10276788;28;20051;-78
2022/10/02 07:25:39;;;;;;;28.20;13.63;;;;;;;12.15;86.17;100350.88;10287045;28;20067;-79
2022/10/02 07:30:56;;;;;;;35.45;13.75;;;;;;;11.93;87.11;100353.75;10273087;28;20118;-77
2022/10/02 07:36:06;;;;;;;31.33;13.75;;;;;;;12.26;85.64;100358.00;10284598;28;20046;-78
2022/10/02 07:41:36;;;;;;;31.52;13.75;;;;;;;12.05;86.58;100355.38;10283798;28;20102;-78
2022/10/02 07:46:48;;;;;;;27.48;12.10;;;;;;;12.81;83.39;100360.31;10266223;28;20126;-78
2022/10/02 07:51:59;;;;;;;27.92;11.07;;;;;;;12.93;81.97;100367.28;10263077;28;20050;-78
2022/10/02 07:57:17;;;;;;;28.60;11.68;;;;;;;12.79;82.78;100367.69;10239365;28;20047;-77
2022/10/02 08:02:28;;;;;;;22.42;8.95;;;;;;;12.71;82.51;100372.91;10239449;28;20072;-78
2022/10/02 08:07:31;;;;;;;31.08;10.18;;;;;;;13.07;81.84;100378.66;10278762;28;20436;-76
2022/10/02 08:12:40;;;;;;;20.27;7.97;;;;;;;13.57;79.08;100381.22;10292717;28;20059;-78
2022/10/02 08:17:48;;;;;;;28.45;10.18;;;;;;;13.68;78.95;100391.84;10296343;28;20075;-77
2022/10/02 08:22:55;;;;;;;23.85;8.95;;;;;;;13.40;79.95;100385.50;10286677;28;20051;-78
2022/10/02 08:28:03;;;;;;;18.95;7.97;;;;;;;14.43;75.92;100394.66;10268762;28;20524;-78
2022/10/02 08:33:14;;;;;;;22.17;7.75;;;;;;;14.09;76.97;100384.38;10277539;28;20051;-77
2022/10/02 08:38:34;;;;;;;23.33;7.50;;;;;;;14.27;75.37;100396.13;10282581;28;20081;-78
2022/10/02 08:44:25;;;;;;;18.27;7.10;;;;;;;14.80;72.97;100392.75;10270117;28;20543;-77
2022/10/02 08:50:06;;;;;;;24.10;7.22;;;;;;;14.92;72.90;100400.63;10281953;28;20058;-78
2022/10/02 08:55:31;;;;;;;25.70;6.05;;;;;;;14.55;72.58;100404.28;10268465;28;20074;-78
2022/10/02 09:00:45;;;;;;;22.02;6.72;;;;;;;14.62;71.53;100416.19;10276521;28;20074;-78
2022/10/02 09:06:13;;;;;;;19.77;5.90;;;;;;;14.47;72.34;100412.28;10281831;28;20047;-77
2022/10/02 09:12:01;;;;;;;23.75;5.70;;;;;;;14.28;72.47;100414.00;10264378;28;20078;-77
2022/10/02 09:17:35;;;;;;;21.52;7.60;;;;;;;14.53;71.25;100412.53;10272839;28;20118;-77
2022/10/02 09:23:11;;;;;;;15.43;5.15;;;;;;;15.07;70.43;100415.34;10267876;28;20043;-76
2022/10/02 09:28:51;;;;;;;21.20;5.35;;;;;;;14.49;70.70;100426.50;10261229;28;20580;-77
2022/10/02 09:34:18;;;;;;;19.88;5.75;;;;;;;14.52;71.08;100404.56;10276017;28;20445;-77
2022/10/02 09:39:56;;;;;;;14.45;4.70;;;;;;;14.78;71.38;100419.09;10262129;28;20133;-77
2022/10/02 09:45:50;;;;;;;15.18;4.93;;;;;;;15.19;68.94;100415.97;10277187;28;20457;-78
2022/10/02 09:51:35;;;;;;;16.27;6.03;;;;;;;14.71;70.62;100407.19;10222326;28;20073;-79
2022/10/02 09:57:00;;;;;;;12.95;4.18;;;;;;;15.77;67.37;100414.66;10267733;28;20066;-78
2022/10/02 10:02:34;;;;;;;16.17;4.55;;;;;;;15.25;67.94;100413.53;10275760;28;20460;-77
2022/10/02 10:08:18;;;;;;;18.40;5.82;;;;;;;15.49;66.99;100422.88;10302116;28;20100;-76
2022/10/02 10:13:59;;;;;;;18.38;6.10;;;;;;;14.56;72.49;100419.47;10288609;28;20075;-77
2022/10/02 10:19:44;;;;;;;15.30;5.35;;;;;;;13.93;79.39;100429.06;10284277;28;20059;-77
2022/10/02 10:25:18;;;;;;;20.50;6.32;;;;;;;12.30;93.38;100421.41;10277165;28;20063;-76
2022/10/02 10:30:43;;;;;;;20.50;6.43;;;;;;;12.33;94.78;100422.97;10289340;28;20462;-80
2022/10/02 10:36:04;;;;;;;21.98;7.55;;;;;;;13.96;95.65;100435.16;10299118;28;20053;-78
2022/10/02 10:41:42;;;;;;;25.95;6.68;;;;;;;13.85;90.43;100439.72;10296926;28;20078;-76
2022/10/02 10:47:17;;;;;;;15.60;6.50;;;;;;;13.50;94.01;100440.31;10291506;28;20135;-79
2022/10/02 10:52:35;;;;;;;22.63;8.15;;;;;;;14.72;100.00;100426.94;10304078;28;20103;-77
2022/10/02 10:57:52;;;;;;;17.95;5.53;;;;;;;16.45;98.18;100422.06;10290574;28;20051;-78
2022/10/02 11:03:26;;;;;;;16.05;4.20;;;;;;;16.53;78.93;100427.53;10290503;28;20046;-78
2022/10/02 11:09:07;;;;;;;12.88;2.75;;;;;;;16.48;73.07;100422.63;10288504;28;20047;-78
2022/10/02 11:14:26;;;;;;;8.55;2.38;;;;;;;16.75;68.24;100423.38;10276574;28;20050;-78
2022/10/02 11:19:49;;;;;;;12.80;3.10;;;;;;;17.42;72.11;100420.72;10280449;28;20051;-79
2022/10/02 11:25:08;;;;;;;13.90;2.40;;;;;;;17.81;62.50;100425.47;10295620;28;20047;-79
2022/10/02 11:30:24;;;;;;;10.25;1.80;;;;;;;17.86;63.32;100434.81;10308550;28;20039;-79
2022/10/02 11:35:37;;;;;;;12.48;1.98;;;;;;;16.83;63.91;100441.56;10296264;28;20042;-78
2022/10/02 11:40:57;;;;;;;9.23;2.53;;;;;;;16.87;66.55;100449.22;10280133;28;20067;-78
2022/10/02 11:46:22;;;;;;;10.45;2.03;;;;;;;15.45;65.23;100454.00;10285575;28;20078;-78
2022/10/02 11:51:49;;;;;;;8.82;1.88;;;;;;;17.31;66.74;100446.31;10285283;28;20070;-79
2022/10/02 11:57:18;;;;;;;5.10;1.77;;;;;;;16.82;61.30;100454.28;10274613;28;20115;-79
2022/10/02 12:02:34;;;;;;;7.85;1.90;;;;;;;16.73;59.24;100449.81;10305012;28;20062;-78
2022/10/02 12:07:46;;;;;;;6.55;1.75;;;;;;;16.93;58.58;100467.56;10310027;28;20074;-79
2022/10/02 12:13:02;;;;;;;8.00;1.50;;;;;;;17.74;58.27;100459.75;10293474;28;20082;-78
2022/10/02 12:18:21;;;;;;;5.32;1.50;;;;;;;17.47;55.02;100467.22;10295312;28;20047;-78
2022/10/02 12:29:01;;;;;;;4.57;1.40;;;;;;;18.24;54.20;100462.31;10292331;28;20062;-80
2022/10/02 12:34:27;;;;;;;7.20;1.65;;;;;;;18.42;53.94;100461.25;10295818;28;20093;-78
2022/10/02 12:39:44;;;;;;;11.35;1.73;;;;;;;17.58;56.46;100466.03;10280868;28;20090;-78
2022/10/02 12:45:18;;;;;;;5.07;1.40;;;;;;;16.53;57.18;100474.47;10292664;28;20048;-80
2022/10/02 12:50:39;;;;;;;10.25;1.90;;;;;;;17.11;57.38;100470.13;10295432;28;20065;-79
2022/10/02 12:56:06;;;;;;;6.50;1.25;;;;;;;18.21;53.59;100476.25;10288206;28;20039;-82
2022/10/02 13:01:37;;;;;;;5.50;1.30;;;;;;;18.69;50.01;100479.88;10286791;28;20046;-80
2022/10/02 13:07:19;;;;;;;4.97;1.50;;;;;;;18.73;49.33;100466.75;10286424;28;20047;-80
2022/10/02 13:12:37;;;;;;;7.40;1.38;;;;;;;19.51;47.95;100454.97;10283791;28;20046;-79
2022/10/02 13:17:50;;;;;;;4.78;1.50;;;;;;;20.23;45.87;100465.47;10290191;28;20039;-79
2022/10/02 13:23:07;;;;;;;4.35;0.98;;;;;;;17.57;50.32;100478.75;10284826;28;20050;-79
2022/10/02 13:28:45;;;;;;;7.63;1.52;;;;;;;16.84;55.18;100492.97;10278562;28;20051;-79
2022/10/02 13:34:06;;;;;;;8.98;2.05;;;;;;;16.18;61.13;100513.38;10278503;28;20067;-79
2022/10/02 13:39:29;;;;;;;7.10;1.85;;;;;;;16.28;62.03;100510.59;10274959;28;20079;-78
2022/10/02 13:44:37;;;;;;;;;;;;;;;16.48;59.61;100512.09;10262855;28;20040;-78
2022/10/02 13:49:57;;;;;;;7.15;1.48;;;;;;;16.10;56.75;100505.19;10278991;28;19968;-78
2022/10/02 13:55:18;;;;;;;4.95;0.90;;;;;;;16.54;57.06;100516.88;10277827;28;20578;-78
2022/10/02 14:00:39;;;;;;;4.30;1.30;;;;;;;21.66;46.18;100516.13;10281811;28;20551;-78
2022/10/02 14:05:46;;;;;;;3.75;1.10;;;;;;;21.10;45.00;100518.63;10280371;28;20131;-79
2022/10/02 14:11:02;;;;;;;6.53;1.45;;;;;;;22.23;44.07;100512.47;10282043;28;20066;-77
2022/10/02 14:16:20;;;;;;;4.40;0.80;;;;;;;21.20;44.39;100520.03;10278776;28;20130;-78
2022/10/02 14:21:30;;;;;;;5.78;1.30;;;;;;;21.31;44.12;100529.63;10279445;28;20050;-77
2022/10/02 14:26:54;;;;;;;6.53;1.40;;;;;;;21.18;45.67;100532.19;10286382;28;20046;-79
2022/10/02 14:32:23;;;;;;;6.22;1.40;;;;;;;20.93;44.68;100532.44;10271580;28;20057;-80
2022/10/02 14:37:42;;;;;;;3.42;1.52;;;;;;;21.16;45.12;100539.72;10270302;28;20119;-79
2022/10/02 14:43:02;;;;;;;5.00;1.83;;;;;;;18.95;49.66;100550.41;10277617;28;20110;-81
2022/10/02 14:48:23;;;;;;;6.32;1.60;;;;;;;16.07;55.04;100557.81;10281478;28;20047;-79
2022/10/02 14:53:45;;;;;;;6.38;2.00;;;;;;;16.12;56.58;100550.06;10285022;28;20062;-78
2022/10/02 14:59:03;;;;;;;4.97;1.42;;;;;;;15.68;58.28;100550.00;10277798;28;20066;-79
2022/10/02 15:04:27;;;;;;;6.63;1.63;;;;;;;16.03;57.52;100564.53;10280066;28;20059;-79
2022/10/02 15:09:39;;;;;;;5.47;1.30;;;;;;;14.45;69.46;100566.47;10277808;28;20146;-80
2022/10/02 15:14:58;;;;;;;10.50;2.13;;;;;;;13.99;73.12;100577.97;10278254;28;20058;-80
2022/10/02 15:20:10;;;;;;;9.80;1.75;;;;;;;14.32;71.53;100579.41;10270056;28;20042;-78
2022/10/02 15:25:16;;;;;;;9.45;1.90;;;;;;;14.86;70.63;100577.88;10285795;28;20051;-78
2022/10/02 15:30:24;;;;;;;8.27;1.77;;;;;;;15.02;68.58;100588.09;10308266;28;20034;-79
2022/10/02 15:35:47;;;;;;;7.93;1.95;;;;;;;15.11;67.83;100586.34;10324383;28;20042;-78
2022/10/02 15:47:37;;;;;;;10.10;1.95;;;;;;;14.62;64.79;100618.06;10278454;28;19915;-78
2022/10/02 15:52:48;;;;;;;10.00;1.83;;;;;;;15.38;62.53;100618.00;10314940;28;20111;-78
2022/10/02 15:58:10;;;;;;;8.95;1.67;;;;;;;15.81;59.67;100617.31;10321242;28;20047;-79
2022/10/02 16:03:23;;;;;;;9.02;1.90;;;;;;;14.90;62.05;100629.84;10299685;28;20071;-78
2022/10/02 16:08:56;;;;;;;11.23;1.70;;;;;;;15.27;62.40;100632.53;10299343;28;20062;-76
2022/10/02 16:14:09;;;;;;;10.23;2.50;;;;;;;15.07;62.97;100649.88;10307432;28;20043;-78
2022/10/02 16:19:27;;;;;;;7.95;2.08;;;;;;;15.47;61.87;100642.34;10308674;28;20058;-77
2022/10/02 16:24:47;;;;;;;9.43;1.90;;;;;;;15.55;60.37;100668.66;10301722;28;20043;-78
2022/10/02 16:30:12;;;;;;;5.88;1.92;;;;;;;14.74;62.16;100669.16;10306956;28;20051;-76
2022/10/02 16:36:18;;;;;;;9.48;2.25;;;;;;;14.56;64.29;100668.16;10299278;28;20063;-77
2022/10/02 16:41:35;;;;;;;4.63;1.52;;;;;;;14.59;63.18;100674.16;10225341;29;20043;-78
2022/10/02 16:46:44;;;;;;;7.03;2.28;;;;;;;13.96;63.14;100684.47;10256996;28;20051;-78
2022/10/02 16:51:55;;;;;;;6.95;2.40;;;;;;;14.05;63.25;100691.72;10284754;28;20412;-78
2022/10/02 16:57:02;;;;;;;8.52;1.67;;;;;;;13.74;64.89;100690.97;10284971;28;20043;-78
2022/10/02 17:02:17;;;;;;;11.10;2.25;;;;;;;13.57;65.44;100702.38;10282220;28;20057;-78
2022/10/02 17:07:30;;;;;;;11.38;2.95;;;;;;;13.62;64.96;100708.22;10284718;28;20070;-79
2022/10/02 17:12:44;;;;;;;12.50;2.40;;;;;;;13.37;65.48;100721.19;10282963;28;20102;-79
2022/10/02 17:17:55;;;;;;;11.00;1.88;;;;;;;13.34;65.60;100732.22;10272497;28;20039;-79
2022/10/02 17:23:05;;;;;;;10.15;2.08;;;;;;;13.22;66.33;100741.41;10269562;28;20051;-79
2022/10/02 17:28:19;;;;;;;11.18;2.28;;;;;;;13.06;66.65;100758.03;10291549;23;20054;-77
2022/10/02 17:33:25;;;;;;;10.52;2.15;;;;;;;12.82;67.52;100771.75;10301123;28;20039;-77
2022/10/02 17:38:44;;;;;;;11.77;2.40;;;;;;;12.71;68.09;100780.75;10264929;29;20548;-77
2022/10/02 17:43:57;;;;;;;8.48;2.65;;;;;;;12.60;68.41;100786.19;10244495;28;20515;-78
2022/10/02 17:49:08;;;;;;;5.63;2.13;;;;;;;12.69;68.20;100793.50;10228564;29;20074;-78
2022/10/02 18:00:06;;;;;;;16.45;2.60;;;;;;;12.55;68.33;100810.81;10234791;29;20039;-78
2022/10/02 18:05:27;;;;;;;10.02;2.10;;;;;;;12.55;68.24;100820.75;10228185;29;20054;-76
2022/10/02 18:10:41;;;;;;;11.20;2.83;;;;;;;12.51;68.16;100832.78;10242740;29;20409;-78
2022/10/02 18:16:14;;;;;;;12.70;2.55;;;;;;;12.43;68.39;100854.94;10228815;29;20043;-78
2022/10/02 18:21:26;;;;;;;13.30;2.95;;;;;;;12.33;68.59;100852.13;10239851;29;20051;-77
2022/10/02 18:26:44;;;;;;;13.63;2.13;;;;;;;12.17;68.71;100857.00;10236935;28;20044;-78
2022/10/02 18:32:12;;;;;;;16.65;2.28;;;;;;;12.28;68.46;100864.22;10252225;28;20047;-79
2022/10/02 18:37:34;;;;;;;8.40;3.00;;;;;;;12.11;68.56;100871.81;10222770;28;20110;-78
2022/10/02 18:42:49;;;;;;;11.98;2.30;;;;;;;12.04;68.86;100886.78;10235730;29;20048;-78
2022/10/02 18:48:03;;;;;;;10.10;2.47;;;;;;;11.93;68.92;100884.94;10246276;28;20039;-77
2022/10/02 18:53:27;;;;;;;7.78;1.77;;;;;;;11.95;69.01;100892.88;10229185;28;20074;-80
2022/10/02 18:58:49;;;;;;;9.25;2.50;;;;;;;11.99;68.96;100898.88;10228599;29;20050;-77
2022/10/02 19:04:08;;;;;;;11.65;2.60;;;;;;;12.05;69.10;100911.84;10237092;29;20131;-80
2022/10/02 19:09:20;;;;;;;11.13;3.05;;;;;;;12.06;69.23;100911.72;10240499;28;20079;-79
2022/10/02 19:14:33;;;;;;;16.03;3.47;;;;;;;12.14;69.17;100913.81;10243294;29;20048;-78
2022/10/02 19:19:35;;;;;;;13.07;2.60;;;;;;;12.01;69.39;100916.59;10244198;29;20588;-80
2022/10/02 19:24:41;;;;;;;12.00;3.40;;;;;;;11.88;69.95;100934.72;10248134;29;20039;-78
2022/10/02 19:29:48;;;;;;;8.90;2.20;;;;;;;11.97;69.56;100942.06;10238971;29;20062;-79
2022/10/02 19:34:58;;;;;;;10.57;2.38;;;;;;;12.09;69.49;100942.94;10228909;28;20047;-78
2022/10/02 19:40:03;;;;;;;9.93;2.38;;;;;;;11.97;69.62;100952.84;10242125;28;20051;-79
2022/10/02 19:45:19;;;;;;;14.27;2.35;;;;;;;11.98;69.13;100951.84;10250380;28;20065;-80
2022/10/02 19:50:39;;;;;;;12.98;1.95;;;;;;;11.98;69.72;100975.22;10254491;29;20035;-78
2022/10/02 19:55:43;;;;;;;10.10;2.63;;;;;;;11.75;70.08;100966.25;10254722;28;20114;-79
2022/10/02 20:00:49;;;;;;;14.80;2.80;;;;;;;11.91;69.50;100967.66;10259200;29;20040;-78
2022/10/02 20:05:57;;;;;;;12.38;2.85;;;;;;;11.52;70.99;100978.75;10255887;29;20043;-79
2022/10/02 20:11:06;;;;;;;11.95;2.33;;;;;;;11.85;70.15;100986.97;10257715;29;20050;-79
2022/10/02 20:21:39;;;;;;;11.77;2.10;;;;;;;11.63;70.87;100989.59;10259747;29;20057;-77
2022/10/02 20:26:44;;;;;;;11.48;2.55;;;;;;;11.28;72.11;100987.72;10257045;28;20043;-79
2022/10/02 20:31:53;;;;;;;11.18;2.25;;;;;;;11.47;71.30;100998.81;10280611;28;20043;-78
2022/10/02 20:37:04;;;;;;;15.73;2.47;;;;;;;11.37;71.80;101011.22;10256319;29;20047;-78
2022/10/02 20:42:13;;;;;;;17.40;2.83;;;;;;;10.97;73.38;101003.41;10259800;29;20121;-76
2022/10/02 20:47:54;;;;;;;6.95;1.88;;;;;;;11.20;72.63;101007.09;10257031;29;20074;-77
2022/10/02 20:53:32;;;;;;;18.60;2.88;;;;;;;11.24;72.20;101021.16;10242100;28;20090;-78
2022/10/02 20:58:49;;;;;;;16.58;3.83;;;;;;;10.97;73.74;101030.28;10249045;29;20469;-80
2022/10/02 21:04:28;;;;;;;10.18;2.25;;;;;;;11.05;73.23;101030.56;10258337;29;20061;-78
2022/10/02 21:10:18;;;;;;;16.58;2.90;;;;;;;11.10;72.97;101035.59;10251753;28;20051;-77
2022/10/02 21:15:50;;;;;;;9.27;2.67;;;;;;;10.68;74.70;101047.63;10278505;28;20051;-78
2022/10/02 21:21:21;;;;;;;12.80;2.47;;;;;;;10.77;74.51;101047.81;10273553;29;20039;-80
2022/10/02 21:26:54;;;;;;;18.08;3.33;;;;;;;11.00;73.55;101046.19;10257693;28;20050;-78
2022/10/02 21:32:21;;;;;;;12.15;2.55;;;;;;;10.43;75.77;101068.16;10257357;28;20047;-79
2022/10/02 21:37:40;;;;;;;12.90;2.28;;;;;;;10.57;75.64;101069.88;10249436;29;20043;-79
2022/10/02 21:43:16;;;;;;;8.85;2.08;;;;;;;10.21;76.58;101087.56;10247674;29;20048;-80
2022/10/02 21:48:57;;;;;;;10.57;2.30;;;;;;;10.55;75.80;101087.91;10246573;28;20039;-81
2022/10/02 21:54:28;;;;;;;15.25;2.92;;;;;;;10.57;75.72;101094.06;10251457;29;20043;-77
2022/10/02 22:00:08;;;;;;;19.98;3.35;;;;;;;10.47;76.53;101106.41;10267523;28;20039;-80
2022/10/02 22:05:39;;;;;;;20.58;3.20;;;;;;;10.32;77.05;101102.94;10257893;29;20051;-78
2022/10/02 22:10:55;;;;;;;13.43;2.42;;;;;;;10.12;77.94;101105.19;10271288;28;20055;-78
2022/10/02 22:16:14;;;;;;;12.93;3.53;;;;;;;10.12;77.67;101113.22;10254549;28;20101;-80
2022/10/02 22:21:48;;;;;;;13.50;3.13;;;;;;;10.15;78.07;101118.38;10224843;29;20052;-79
2022/10/02 22:27:12;;;;;;;11.38;2.88;;;;;;;10.40;77.43;101119.41;10223346;28;20054;-80
2022/10/02 22:38:13;;;;;;;20.10;5.20;;;;;;;10.36;77.93;101131.31;10239191;29;20445;-79
2022/10/02 22:43:24;;;;;;;18.92;3.20;;;;;;;10.41;77.32;101136.38;10225398;29;20599;-80
2022/10/02 22:48:36;;;;;;;13.15;2.53;;;;;;;10.42;77.47;101146.13;10248790;28;20502;-80
2022/10/02 22:53:45;;;;;;;10.55;2.63;;;;;;;10.30;77.77;101140.66;10222355;29;20048;-78
2022/10/02 22:58:57;;;;;;;11.30;2.75;;;;;;;10.06;78.97;101144.97;10224591;29;20369;-79
2022/10/02 23:04:05;;;;;;;21.63;3.20;;;;;;;9.89;79.96;101138.06;10260503;28;20054;-79
2022/10/02 23:09:17;;;;;;;21.02;3.50;;;;;;;10.02;79.01;101156.91;10248483;29;20089;-79
2022/10/02 23:14:28;;;;;;;20.20;3.35;;;;;;;10.02;79.80;101143.47;10244173;28;20445;-79
2022/10/02 23:19:42;;;;;;;17.38;2.60;;;;;;;10.26;78.54;101151.72;10234611;29;20070;-76
2022/10/02 23:24:51;;;;;;;19.13;3.08;;;;;;;10.08;79.32;101159.16;10227993;29;20048;-78
2022/10/02 23:29:59;;;;;;;12.45;2.53;;;;;;;9.44;81.85;101151.66;10239042;29;20079;-78
2022/10/02 23:35:09;;;;;;;7.25;1.83;;;;;;;9.67;80.38;101158.22;10239962;29;20077;-78
2022/10/02 23:41:35;;;;;;;15.57;2.72;;;;;;;9.72;80.65;101161.47;10243898;29;20411;-77
2022/10/02 23:45:55;;;;;;;15.27;3.30;;;;;;;9.71;80.77;101157.06;10217463;29;20044;-77
2022/10/02 23:51:11;;;;;;;11.15;1.98;;;;;;;9.54;81.41;101159.97;10217280;29;20417;-78
2022/10/02 23:56:39;;;;;;;16.65;2.60;;;;;;;9.39;82.01;101179.72;10216888;29;20044;-78
